Time;durP1;ratioP1;P1;durP2;ratioP2;P2;SDS_P1;SDS_P2;PMS_P1;PMS_P2;Temp;Humidity;BMP_temperature;BMP_pressure;BME280_temperature;BME280_humidity;BME280_pressure;Samples;Min_cycle;Max_cycle;Signal;HPM_P1;HPM_P2
2022/07/16 00:02:22;;;;;;;2.90;1.60;;;;;;;16.84;56.89;100770.03;5084594;28;20420;-69
2022/07/16 00:04:49;;;;;;;2.83;2.00;;;;;;;16.80;56.87;100769.91;5077939;28;20056;-69
2022/07/16 00:07:16;;;;;;;4.00;1.65;;;;;;;16.76;57.13;100763.28;5075816;28;20079;-69
2022/07/16 00:09:45;;;;;;;4.28;1.77;;;;;;;16.75;56.89;100766.44;5078211;28;20052;-69
2022/07/16 00:12:12;;;;;;;3.57;1.67;;;;;;;16.71;57.16;100768.31;5077980;28;20055;-69
2022/07/16 00:14:40;;;;;;;3.05;1.40;;;;;;;16.64;57.07;100780.97;5078237;28;20394;-69
2022/07/16 00:17:07;;;;;;;3.28;1.60;;;;;;;16.58;57.21;100773.09;5074976;28;20064;-69
2022/07/16 00:19:34;;;;;;;3.35;1.60;;;;;;;16.51;57.58;100772.84;5077917;28;20055;-68
2022/07/16 00:22:01;;;;;;;2.67;1.40;;;;;;;16.42;57.82;100775.72;5078204;28;20048;-69
2022/07/16 00:24:28;;;;;;;3.92;1.77;;;;;;;16.41;57.83;100780.53;5078166;28;20056;-69
2022/07/16 00:26:57;;;;;;;2.92;1.70;;;;;;;16.36;57.80;100775.16;5077094;28;20060;-66
2022/07/16 00:29:24;;;;;;;5.13;1.67;;;;;;;16.33;57.89;100767.41;5075585;28;20500;-70
2022/07/16 00:31:53;;;;;;;2.67;1.48;;;;;;;16.33;57.93;100770.22;5077971;28;20056;-69
2022/07/16 00:34:20;;;;;;;3.70;1.90;;;;;;;16.32;57.51;100771.38;5078285;28;20404;-69
2022/07/16 00:36:49;;;;;;;3.00;1.58;;;;;;;16.31;57.74;100763.28;5069353;28;20994;-69
2022/07/16 00:39:18;;;;;;;5.82;1.95;;;;;;;16.34;58.11;100769.06;5054808;28;20067;-69
2022/07/16 00:41:47;;;;;;;4.95;1.92;;;;;;;16.38;57.77;100760.75;5054377;28;20045;-70
2022/07/16 00:44:19;;;;;;;3.33;1.90;;;;;;;16.39;57.77;100766.00;5054344;28;20060;-70
2022/07/16 00:46:47;;;;;;;4.38;1.80;;;;;;;16.42;57.73;100770.13;5057556;28;20052;-69
2022/07/16 00:49:15;;;;;;;4.00;1.67;;;;;;;16.48;57.88;100763.09;5074033;28;20721;-69
2022/07/16 00:51:45;;;;;;;3.03;1.50;;;;;;;16.55;57.77;100762.56;5074372;28;20466;-69
2022/07/16 00:54:13;;;;;;;3.67;1.80;;;;;;;16.60;58.03;100765.94;5074159;28;20060;-69
2022/07/16 00:56:40;;;;;;;5.13;2.70;;;;;;;16.69;57.71;100767.84;5072681;28;20048;-69
2022/07/16 00:59:08;;;;;;;4.82;2.83;;;;;;;16.76;57.33;100756.84;5072825;28;20053;-69
2022/07/16 01:01:36;;;;;;;5.03;2.50;;;;;;;16.82;57.31;100756.31;5074075;28;20060;-69
2022/07/16 01:04:04;;;;;;;4.10;2.97;;;;;;;16.89;57.22;100757.72;5074460;28;20057;-69
2022/07/16 01:06:32;;;;;;;5.30;3.15;;;;;;;16.94;57.01;100757.47;5074239;28;20049;-69
2022/07/16 01:09:00;;;;;;;5.53;3.10;;;;;;;16.98;56.82;100756.41;5070651;28;20070;-69
2022/07/16 01:11:28;;;;;;;5.60;2.90;;;;;;;16.99;56.74;100760.88;5074026;28;20056;-69
2022/07/16 01:13:55;;;;;;;4.43;2.70;;;;;;;17.07;56.68;100759.09;5073874;28;20059;-67
2022/07/16 01:16:22;;;;;;;5.07;2.63;;;;;;;17.15;56.75;100765.81;5074301;28;20044;-69
2022/07/16 01:18:51;;;;;;;3.45;2.10;;;;;;;17.21;56.93;100758.78;5068671;28;20041;-69
2022/07/16 01:21:18;;;;;;;4.70;2.22;;;;;;;17.24;56.38;100756.06;5069830;28;20049;-69
2022/07/16 01:23:49;;;;;;;3.88;2.05;;;;;;;17.29;56.24;100757.81;5071631;28;20052;-69
2022/07/16 01:26:16;;;;;;;4.85;2.20;;;;;;;17.32;55.82;100751.47;5073859;28;20052;-69
2022/07/16 01:28:44;;;;;;;3.78;1.83;;;;;;;17.33;55.77;100750.31;5070992;28;20050;-69
2022/07/16 01:31:11;;;;;;;4.22;1.98;;;;;;;17.29;55.82;100749.38;5074046;28;20056;-69
2022/07/16 01:33:40;;;;;;;4.18;2.40;;;;;;;17.30;55.64;100750.19;5073368;28;20075;-69
2022/07/16 01:36:10;;;;;;;8.23;2.58;;;;;;;17.25;55.44;100756.88;5070122;28;20500;-67
2022/07/16 01:38:39;;;;;;;3.58;2.25;;;;;;;17.19;55.78;100758.28;5053428;28;20056;-69
2022/07/16 01:41:08;;;;;;;4.30;2.53;;;;;;;17.13;55.82;100754.06;5053930;28;20140;-69
2022/07/16 01:43:36;;;;;;;3.40;2.00;;;;;;;17.08;56.13;100763.59;5053031;28;20057;-69
2022/07/16 01:46:04;;;;;;;2.47;1.85;;;;;;;17.01;56.53;100755.72;5053890;28;20402;-66
2022/07/16 01:48:31;;;;;;;4.03;2.30;;;;;;;16.96;56.73;100760.75;5072136;28;20057;-69
2022/07/16 01:50:59;;;;;;;4.32;2.25;;;;;;;16.91;57.13;100752.56;5073692;28;20059;-69
2022/07/16 01:53:28;;;;;;;3.63;2.00;;;;;;;16.88;57.32;100744.81;5073660;28;20441;-69
2022/07/16 01:55:55;;;;;;;4.53;2.33;;;;;;;16.81;57.35;100748.22;5056799;28;20060;-69
2022/07/16 01:58:25;;;;;;;4.10;2.38;;;;;;;16.77;57.40;100747.22;5067226;28;20064;-69
2022/07/16 02:00:53;;;;;;;3.75;2.65;;;;;;;16.70;57.55;100747.00;5073289;28;20057;-69
2022/07/16 02:03:21;;;;;;;5.28;2.55;;;;;;;16.60;57.88;100749.06;5073040;28;20060;-69
2022/07/16 02:05:48;;;;;;;5.28;3.13;;;;;;;16.54;58.01;100750.47;5073097;28;20052;-69
2022/07/16 02:08:16;;;;;;;4.00;2.45;;;;;;;16.48;58.26;100745.41;5068749;28;20045;-69
2022/07/16 02:10:43;;;;;;;3.47;2.33;;;;;;;16.44;58.63;100750.91;5073311;28;20052;-69
2022/07/16 02:13:11;;;;;;;5.40;2.85;;;;;;;16.40;58.80;100750.81;5072953;28;20429;-69
2022/07/16 02:15:40;;;;;;;3.25;2.40;;;;;;;16.34;59.15;100748.56;5072148;28;20056;-69
2022/07/16 02:18:07;;;;;;;2.88;2.33;;;;;;;16.29;59.41;100741.13;5070074;28;20055;-69
2022/07/16 02:20:34;;;;;;;5.55;2.33;;;;;;;16.27;59.40;100745.47;5073055;28;20052;-69
2022/07/16 02:23:01;;;;;;;4.60;2.30;;;;;;;16.28;59.26;100742.31;5072624;28;20049;-69
2022/07/16 02:25:29;;;;;;;5.40;2.60;;;;;;;16.20;59.40;100741.25;5072964;28;20059;-68
2022/07/16 02:28:08;;;;;;;4.05;2.67;;;;;;;16.24;59.26;100750.63;5069763;28;20055;-68
2022/07/16 02:30:37;;;;;;;3.28;2.28;;;;;;;16.24;58.52;100739.38;5072788;28;20500;-69
2022/07/16 02:33:06;;;;;;;3.95;2.75;;;;;;;16.23;58.72;100743.38;5072960;28;20499;-69
2022/07/16 02:35:34;;;;;;;3.30;2.70;;;;;;;16.25;59.16;100743.00;5070322;28;20053;-68
2022/07/16 02:38:02;;;;;;;4.32;2.72;;;;;;;16.29;59.02;100740.34;5069457;28;20489;-69
2022/07/16 02:40:32;;;;;;;4.22;2.78;;;;;;;16.34;59.18;100742.94;5072141;28;20429;-69
2022/07/16 02:43:00;;;;;;;3.40;2.50;;;;;;;16.38;59.09;100747.50;5072055;28;20059;-68
2022/07/16 02:45:28;;;;;;;6.93;2.92;;;;;;;16.41;59.17;100746.00;5072476;28;20485;-69
2022/07/16 02:47:55;;;;;;;3.97;2.70;;;;;;;16.49;59.19;100747.06;5069504;28;20075;-69
2022/07/16 02:50:24;;;;;;;6.45;3.38;;;;;;;16.54;59.12;100739.22;5072614;28;20053;-69
2022/07/16 02:52:51;;;;;;;4.03;2.40;;;;;;;16.60;59.02;100739.81;5072739;28;20053;-69
2022/07/16 02:55:19;;;;;;;3.60;2.50;;;;;;;16.68;58.64;100738.09;5072532;28;20057;-69
2022/07/16 02:57:46;;;;;;;5.15;2.80;;;;;;;16.70;58.15;100738.56;5067935;28;20139;-69
2022/07/16 03:00:16;;;;;;;3.75;2.42;;;;;;;16.76;57.95;100734.34;5068386;28;20048;-69
2022/07/16 03:02:44;;;;;;;4.25;2.75;;;;;;;16.75;57.60;100739.13;5071628;28;20048;-69
2022/07/16 03:05:12;;;;;;;3.65;2.30;;;;;;;16.81;57.80;100734.94;5072383;28;20056;-69
2022/07/16 03:07:42;;;;;;;4.13;2.38;;;;;;;16.89;57.85;100746.47;5070094;28;20500;-67
2022/07/16 03:10:10;;;;;;;5.18;2.58;;;;;;;16.94;57.78;100740.59;5072240;28;20053;-69
2022/07/16 03:12:38;;;;;;;4.22;2.33;;;;;;;16.99;57.63;100738.38;5071986;28;20059;-69
2022/07/16 03:15:06;;;;;;;4.30;2.83;;;;;;;17.02;57.50;100740.47;5072241;28;20056;-69
2022/07/16 03:17:34;;;;;;;4.47;2.30;;;;;;;17.06;57.51;100740.59;5068553;28;20520;-69
2022/07/16 03:20:03;;;;;;;4.18;2.92;;;;;;;17.08;57.75;100740.25;5060399;28;21003;-68
2022/07/16 03:22:30;;;;;;;4.07;2.67;;;;;;;17.13;57.55;100737.19;5052049;28;20057;-69
2022/07/16 03:24:59;;;;;;;6.22;2.97;;;;;;;17.15;57.40;100726.41;5051844;28;20060;-69
2022/07/16 03:27:26;;;;;;;4.80;3.03;;;;;;;17.15;57.30;100726.41;5053477;28;20059;-68
2022/07/16 03:29:54;;;;;;;8.38;3.00;;;;;;;17.17;57.20;100729.69;5071217;28;21018;-69
2022/07/16 03:32:21;;;;;;;4.35;2.83;;;;;;;17.20;57.16;100729.00;5072019;28;20057;-68
2022/07/16 03:34:48;;;;;;;5.25;3.08;;;;;;;17.19;57.01;100725.34;5071823;28;20056;-69
2022/07/16 03:37:16;;;;;;;7.25;4.05;;;;;;;17.25;56.78;100726.72;5068593;28;20049;-69
2022/07/16 03:39:43;;;;;;;6.47;3.95;;;;;;;17.27;56.99;100736.84;5071557;28;20469;-68
2022/07/16 03:42:12;;;;;;;5.38;3.60;;;;;;;17.24;56.93;100727.91;5071462;28;20052;-69
2022/07/16 03:44:39;;;;;;;10.10;3.53;;;;;;;17.30;56.74;100720.03;5071893;28;20424;-68
2022/07/16 03:47:07;;;;;;;3.97;3.08;;;;;;;17.30;56.78;100731.28;5068543;28;20052;-69
2022/07/16 03:49:34;;;;;;;7.63;3.13;;;;;;;17.31;56.67;100727.31;5071758;28;20052;-69
2022/07/16 03:52:01;;;;;;;3.92;2.55;;;;;;;17.37;56.31;100731.53;5071746;28;20055;-69
2022/07/16 03:54:28;;;;;;;4.32;2.75;;;;;;;17.38;56.11;100735.16;5071861;28;20119;-69
2022/07/16 03:56:56;;;;;;;5.60;2.75;;;;;;;17.36;56.00;100729.88;5068979;28;20057;-69
2022/07/16 03:59:24;;;;;;;5.20;2.40;;;;;;;17.31;55.78;100732.94;5071693;28;20079;-68
2022/07/16 04:01:52;;;;;;;6.43;2.80;;;;;;;17.25;55.63;100728.75;5071379;28;20048;-69
2022/07/16 04:04:19;;;;;;;6.03;2.90;;;;;;;17.17;55.71;100727.69;5071239;28;20059;-69
2022/07/16 04:06:46;;;;;;;6.50;2.78;;;;;;;17.28;55.43;100724.38;5068464;28;20052;-68
2022/07/16 04:09:14;;;;;;;5.35;2.58;;;;;;;17.21;55.51;100731.44;5071361;28;20408;-69
2022/07/16 04:11:41;;;;;;;5.88;2.90;;;;;;;17.26;55.43;100727.56;5071575;28;20056;-69
2022/07/16 04:14:08;;;;;;;5.93;3.08;;;;;;;17.34;55.33;100735.03;5074851;28;20056;-68
2022/07/16 04:16:37;;;;;;;8.52;2.80;;;;;;;17.30;55.27;100734.13;5073713;28;20056;-68
2022/07/16 04:19:04;;;;;;;5.93;2.80;;;;;;;17.33;55.36;100733.41;5073480;28;20059;-68
2022/07/16 04:21:32;;;;;;;6.65;3.50;;;;;;;17.33;55.14;100735.44;5075157;28;20056;-69
2022/07/16 04:23:59;;;;;;;3.63;2.72;;;;;;;17.40;54.88;100730.00;5074825;28;20056;-68
2022/07/16 04:26:26;;;;;;;5.43;2.85;;;;;;;17.43;54.85;100737.75;5074704;28;20048;-68
2022/07/16 04:28:53;;;;;;;4.18;2.95;;;;;;;17.51;54.39;100741.59;5072422;28;20049;-68
2022/07/16 04:31:21;;;;;;;4.53;2.50;;;;;;;17.60;54.48;100739.47;5074653;28;20057;-68
2022/07/16 04:33:50;;;;;;;3.60;2.40;;;;;;;17.63;54.11;100745.22;5074809;28;20483;-68
2022/07/16 04:36:17;;;;;;;5.47;2.67;;;;;;;17.61;53.94;100758.81;5071528;28;20523;-69
2022/07/16 04:38:44;;;;;;;8.32;3.38;;;;;;;17.72;53.64;100741.44;5074650;28;20044;-68
2022/07/16 04:41:12;;;;;;;4.95;2.40;;;;;;;17.76;53.47;100748.81;5075152;28;20052;-68
2022/07/16 04:43:39;;;;;;;4.70;2.50;;;;;;;17.89;53.12;100741.19;5074693;28;20048;-69
2022/07/16 04:46:07;;;;;;;4.10;2.67;;;;;;;17.96;52.95;100744.22;5072215;28;20044;-68
2022/07/16 04:48:34;;;;;;;5.20;2.83;;;;;;;17.97;52.59;100747.84;5074469;28;20400;-69
2022/07/16 04:51:03;;;;;;;3.60;2.35;;;;;;;18.01;52.52;100748.75;5075558;28;20393;-68
2022/07/16 04:53:30;;;;;;;3.90;2.50;;;;;;;18.04;52.54;100759.34;5074759;28;20049;-68
2022/07/16 04:55:57;;;;;;;4.30;2.28;;;;;;;18.16;52.43;100756.44;5071413;28;20056;-68
2022/07/16 04:58:25;;;;;;;4.60;2.45;;;;;;;18.29;51.84;100754.41;5069840;28;20048;-68
2022/07/16 05:00:52;;;;;;;4.18;2.20;;;;;;;18.28;51.85;100757.59;5074156;28;20059;-68
2022/07/16 05:03:19;;;;;;;4.47;2.40;;;;;;;18.36;51.72;100753.78;5074509;28;20072;-69
2022/07/16 05:05:47;;;;;;;4.25;2.13;;;;;;;18.42;51.72;100753.16;5073677;28;20056;-67
2022/07/16 05:08:15;;;;;;;5.35;2.70;;;;;;;18.47;51.24;100754.88;5071864;28;20048;-69
2022/07/16 05:10:43;;;;;;;4.18;2.10;;;;;;;18.49;51.10;100758.16;5074370;28;20053;-69
2022/07/16 05:13:11;;;;;;;3.63;2.10;;;;;;;18.53;51.05;100761.91;5073615;28;20056;-68
2022/07/16 05:15:38;;;;;;;5.45;2.53;;;;;;;18.62;50.91;100758.91;5073968;28;20059;-69
2022/07/16 05:18:06;;;;;;;4.43;2.03;;;;;;;18.67;50.95;100765.13;5073967;28;20053;-69
2022/07/16 05:20:33;;;;;;;4.07;2.45;;;;;;;18.69;50.53;100766.75;5067517;28;20053;-68
2022/07/16 05:23:01;;;;;;;4.68;2.40;;;;;;;18.78;50.38;100764.59;5073030;28;20056;-68
2022/07/16 05:25:30;;;;;;;5.20;2.08;;;;;;;18.92;50.35;100767.81;5074110;28;20049;-68
2022/07/16 05:27:57;;;;;;;3.80;2.25;;;;;;;19.01;49.83;100757.13;5073220;28;20048;-68
2022/07/16 05:30:24;;;;;;;5.25;2.55;;;;;;;19.07;49.75;100760.50;5064622;28;20079;-68
2022/07/16 05:32:52;;;;;;;4.53;2.90;;;;;;;19.17;49.83;100759.13;5073202;28;20064;-68
2022/07/16 05:35:19;;;;;;;5.90;2.40;;;;;;;19.24;49.38;100765.78;5073822;28;20347;-69
2022/07/16 05:37:47;;;;;;;5.53;2.20;;;;;;;19.28;49.31;100765.88;5073744;28;20378;-69
2022/07/16 05:40:15;;;;;;;4.75;2.30;;;;;;;19.34;49.11;100760.72;5070261;28;20044;-69
2022/07/16 05:42:44;;;;;;;4.93;2.45;;;;;;;19.46;49.20;100775.59;5073090;28;20044;-68
2022/07/16 05:45:11;;;;;;;4.10;2.50;;;;;;;19.33;49.52;100768.41;5070506;28;20064;-68
2022/07/16 05:47:39;;;;;;;5.13;2.42;;;;;;;19.48;49.16;100781.66;5069195;28;20052;-69
2022/07/16 05:50:08;;;;;;;7.13;2.80;;;;;;;19.56;49.18;100771.34;5071950;28;20045;-68
2022/07/16 05:52:35;;;;;;;3.38;2.38;;;;;;;19.78;48.97;100767.06;5072178;28;20060;-68
2022/07/16 05:55:03;;;;;;;5.63;2.72;;;;;;;20.00;48.63;100776.00;5073286;28;20338;-68
2022/07/16 05:57:30;;;;;;;5.47;2.70;;;;;;;20.03;48.57;100778.91;5073102;28;20063;-68
2022/07/16 05:59:59;;;;;;;5.53;2.42;;;;;;;20.20;48.43;100783.28;5063000;28;20044;-68
2022/07/16 06:02:26;;;;;;;6.38;2.67;;;;;;;20.33;48.27;100785.97;5062857;28;20056;-68
2022/07/16 06:04:53;;;;;;;5.45;2.67;;;;;;;20.41;48.60;100784.88;5069671;28;20055;-68
2022/07/16 06:07:20;;;;;;;4.50;2.45;;;;;;;20.55;48.40;100784.34;5072993;28;20052;-68
2022/07/16 06:09:48;;;;;;;5.45;2.58;;;;;;;20.71;48.28;100795.63;5073133;28;20044;-69
2022/07/16 06:12:15;;;;;;;5.13;2.50;;;;;;;20.82;48.00;100794.59;5072749;28;20060;-69
2022/07/16 06:14:42;;;;;;;4.88;2.45;;;;;;;20.88;47.92;100789.47;5072684;28;20059;-69
2022/07/16 06:17:11;;;;;;;4.72;2.50;;;;;;;20.92;48.24;100796.00;5071174;28;20489;-68
2022/07/16 06:19:40;;;;;;;4.97;3.03;;;;;;;20.94;47.99;100801.31;5063918;28;20059;-68
2022/07/16 06:22:09;;;;;;;5.32;2.53;;;;;;;21.01;48.16;100798.56;5065721;28;20048;-69
2022/07/16 06:24:36;;;;;;;6.18;3.10;;;;;;;21.01;48.49;100805.06;5069197;28;20063;-63
2022/07/16 06:27:04;;;;;;;3.53;2.47;;;;;;;20.77;50.87;100811.09;5065664;28;20063;-63
2022/07/16 06:29:31;;;;;;;5.13;3.30;;;;;;;20.48;50.41;100814.16;5060460;28;20079;-63
2022/07/16 06:31:58;;;;;;;5.65;3.13;;;;;;;20.61;50.32;100814.84;5063625;28;20056;-62
2022/07/16 06:34:27;;;;;;;4.43;3.22;;;;;;;20.33;50.82;100811.44;5064243;28;20063;-63
2022/07/16 06:36:54;;;;;;;5.47;2.88;;;;;;;20.38;51.44;100817.59;5065695;28;20049;-63
2022/07/16 06:39:22;;;;;;;6.10;3.03;;;;;;;20.71;50.53;100823.94;5070564;28;20060;-62
2022/07/16 06:41:49;;;;;;;6.45;3.15;;;;;;;20.54;51.01;100817.50;5065278;28;20638;-62
2022/07/16 06:44:16;;;;;;;7.10;3.33;;;;;;;20.77;50.73;100834.56;5070875;28;20401;-62
2022/07/16 06:46:44;;;;;;;4.85;3.05;;;;;;;20.63;51.32;100829.44;5069096;28;20048;-63
2022/07/16 06:49:11;;;;;;;4.68;3.35;;;;;;;20.55;51.66;100826.81;5072171;28;20052;-63
2022/07/16 06:51:39;;;;;;;4.10;3.35;;;;;;;20.67;51.69;100836.00;5069032;28;20489;-63
2022/07/16 06:54:07;;;;;;;5.45;3.20;;;;;;;20.79;51.65;100837.00;5067569;28;20055;-61
2022/07/16 06:56:34;;;;;;;5.82;3.22;;;;;;;21.02;51.12;100840.69;5066125;28;20052;-62
2022/07/16 06:59:01;;;;;;;6.38;3.50;;;;;;;21.11;51.00;100839.63;5069015;28;20051;-61
2022/07/16 07:01:29;;;;;;;4.80;2.63;;;;;;;21.26;50.44;100838.66;5065946;28;20063;-61
2022/07/16 07:03:56;;;;;;;5.82;2.75;;;;;;;21.57;49.79;100845.28;5071615;28;20052;-61
2022/07/16 07:06:24;;;;;;;3.22;2.22;;;;;;;21.79;49.05;100847.22;5065049;28;20515;-62
2022/07/16 07:08:52;;;;;;;3.75;2.50;;;;;;;21.96;49.07;100847.88;5068290;28;20044;-62
2022/07/16 07:11:19;;;;;;;3.28;2.15;;;;;;;22.08;48.70;100847.66;5068957;28;20075;-61
2022/07/16 07:13:48;;;;;;;3.22;2.10;;;;;;;22.21;47.64;100853.91;5071952;28;20052;-61
2022/07/16 07:16:16;;;;;;;2.53;1.70;;;;;;;22.30;47.32;100865.84;5068799;28;20052;-62
2022/07/16 07:18:43;;;;;;;4.00;2.10;;;;;;;22.05;47.38;100859.78;5071027;28;20587;-62
2022/07/16 07:21:10;;;;;;;3.53;2.08;;;;;;;22.00;47.70;100865.78;5064402;28;20045;-62
2022/07/16 07:23:38;;;;;;;3.08;1.75;;;;;;;21.83;48.15;100862.28;5056708;28;20052;-61
2022/07/16 07:26:07;;;;;;;3.40;1.90;;;;;;;21.58;48.38;100870.41;5066479;28;20067;-62
2022/07/16 07:28:34;;;;;;;3.85;1.80;;;;;;;21.56;48.77;100869.16;5068429;28;20057;-62
2022/07/16 07:31:03;;;;;;;3.13;2.10;;;;;;;21.62;48.58;100873.31;5068053;28;20036;-62
2022/07/16 07:33:30;;;;;;;5.22;2.28;;;;;;;21.29;49.39;100869.06;5051374;28;20485;-62
2022/07/16 07:35:57;;;;;;;3.13;2.00;;;;;;;21.34;49.10;100868.78;5067151;28;20048;-62
2022/07/16 07:38:25;;;;;;;4.07;2.17;;;;;;;21.61;48.37;100877.34;5055755;28;20053;-61
2022/07/16 07:40:52;;;;;;;3.17;2.00;;;;;;;21.82;47.98;100877.69;5065874;28;20049;-62
2022/07/16 07:43:21;;;;;;;3.00;2.00;;;;;;;22.06;47.54;100878.44;5069019;28;20048;-67
2022/07/16 07:45:48;;;;;;;3.17;2.08;;;;;;;22.30;46.66;100880.03;5070917;28;20062;-67
2022/07/16 07:48:15;;;;;;;2.47;1.80;;;;;;;22.47;46.26;100885.09;5074340;28;20477;-67
2022/07/16 07:50:43;;;;;;;2.83;1.83;;;;;;;22.70;45.71;100875.66;5074104;28;20492;-67
2022/07/16 07:53:10;;;;;;;3.15;1.63;;;;;;;23.03;44.80;100883.31;5072165;28;20056;-67
2022/07/16 07:55:38;;;;;;;3.20;1.77;;;;;;;23.37;44.05;100880.44;5057013;28;20064;-67
2022/07/16 07:58:05;;;;;;;1.90;1.30;;;;;;;23.61;42.86;100881.03;5059283;28;20501;-67
2022/07/16 08:00:34;;;;;;;3.22;1.45;;;;;;;23.81;42.37;100876.75;5073184;28;20613;-67
2022/07/16 08:03:01;;;;;;;2.60;1.40;;;;;;;24.31;42.43;100884.75;5075247;28;20052;-66
2022/07/16 08:05:29;;;;;;;2.85;1.58;;;;;;;25.37;40.21;100879.84;5073779;28;20414;-67
2022/07/16 08:07:56;;;;;;;3.58;1.30;;;;;;;26.21;37.93;100876.53;5070465;28;20045;-68
2022/07/16 08:10:24;;;;;;;3.22;1.33;;;;;;;27.81;34.67;100878.03;5073762;28;20055;-68
2022/07/16 08:12:51;;;;;;;2.20;1.30;;;;;;;28.78;32.35;100871.22;5061118;28;20052;-66
2022/07/16 08:15:18;;;;;;;3.35;1.15;;;;;;;29.53;30.90;100870.09;5066082;28;20053;-66
2022/07/16 08:17:47;;;;;;;2.17;1.17;;;;;;;29.49;30.16;100877.97;5067091;28;20493;-66
2022/07/16 08:20:16;;;;;;;2.28;1.17;;;;;;;30.17;29.67;100885.38;5068115;28;20071;-67
2022/07/16 08:22:44;;;;;;;1.42;0.93;;;;;;;29.30;29.96;100885.25;5066909;28;20408;-66
2022/07/16 08:27:56;;;;;;;2.30;0.90;;;;;;;27.76;31.25;100887.06;5073989;28;20064;-66
2022/07/16 08:30:23;;;;;;;5.60;1.10;;;;;;;27.76;31.29;100890.75;5071154;28;20048;-66
2022/07/16 08:32:52;;;;;;;1.48;1.02;;;;;;;29.09;29.52;100881.41;5060601;28;20698;-66
2022/07/16 08:35:19;;;;;;;1.73;1.02;;;;;;;29.64;28.50;100887.16;5059840;28;20056;-66
2022/07/16 08:37:48;;;;;;;3.10;1.30;;;;;;;30.32;27.26;100886.75;5056373;28;20056;-66
2022/07/16 08:40:17;;;;;;;3.08;1.25;;;;;;;31.27;26.64;100887.16;5071214;28;20055;-66
2022/07/16 08:42:45;;;;;;;2.38;1.10;;;;;;;32.16;25.27;100880.38;5074184;28;20059;-66
2022/07/16 08:45:14;;;;;;;3.60;1.17;;;;;;;33.22;24.08;100882.59;5070669;28;20063;-66
2022/07/16 08:47:41;;;;;;;2.47;1.20;;;;;;;33.97;23.26;100888.75;5062106;28;20473;-66
2022/07/16 08:50:12;;;;;;;1.40;1.10;;;;;;;34.80;22.86;100882.81;5072823;28;20055;-67
2022/07/16 08:52:43;;;;;;;2.08;1.00;;;;;;;33.74;23.21;100887.06;5073095;28;20056;-66
2022/07/16 08:55:11;;;;;;;2.35;0.70;;;;;;;32.83;23.91;100884.63;5062338;28;20477;-66
2022/07/16 08:57:40;;;;;;;2.17;1.20;;;;;;;31.88;25.53;100897.16;5064492;28;20049;-66
2022/07/16 09:00:10;;;;;;;;;;;;;;;30.83;26.10;100902.97;5069424;28;20060;-66
2022/07/16 09:02:37;;;;;;;1.83;1.08;;;;;;;30.91;26.38;100910.19;5065317;28;19921;-66
2022/07/16 09:05:05;;;;;;;1.85;1.08;;;;;;;30.83;26.45;100911.59;5067733;28;20044;-66
2022/07/16 09:07:34;;;;;;;3.38;1.30;;;;;;;30.50;27.01;100917.19;5074326;28;20057;-66
2022/07/16 09:10:02;;;;;;;3.33;1.60;;;;;;;30.83;26.96;100905.84;5068928;28;20041;-64
2022/07/16 09:12:38;;;;;;;3.85;1.00;;;;;;;30.68;27.29;100913.94;5055490;28;20061;-65
2022/07/16 09:15:25;;;;;;;1.63;1.02;;;;;;;29.93;27.96;100917.00;5059499;28;20061;-66
2022/07/16 09:18:08;;;;;;;3.15;1.30;;;;;;;29.93;28.29;100916.19;5053548;28;20057;-65
2022/07/16 09:20:36;;;;;;;1.67;1.17;;;;;;;30.07;27.67;100913.06;5063646;28;20051;-66
2022/07/16 09:23:09;;;;;;;1.77;0.90;;;;;;;29.40;28.16;100923.59;5064525;28;20061;-64
2022/07/16 09:25:48;;;;;;;2.20;1.10;;;;;;;29.93;27.27;100917.00;5055188;28;20057;-66
2022/07/16 09:28:15;;;;;;;3.17;1.00;;;;;;;30.56;26.29;100924.06;5043670;28;20076;-65
2022/07/16 09:30:43;;;;;;;2.55;0.95;;;;;;;30.46;26.45;100927.94;5050476;28;20056;-65
2022/07/16 09:33:15;;;;;;;2.95;1.25;;;;;;;32.12;25.21;100917.94;5050762;28;20056;-65
2022/07/16 09:35:44;;;;;;;1.83;1.00;;;;;;;33.01;23.09;100928.19;5050544;28;20053;-66
2022/07/16 09:38:14;;;;;;;2.67;0.98;;;;;;;33.54;22.51;100940.13;5048537;28;20096;-66
2022/07/16 09:40:43;;;;;;;2.42;1.02;;;;;;;33.09;22.82;100932.47;5051467;28;20036;-66
2022/07/16 09:43:22;;;;;;;2.20;1.02;;;;;;;32.58;22.68;100932.34;5049277;28;20045;-65
2022/07/16 09:45:57;;;;;;;2.65;1.33;;;;;;;32.16;23.56;100946.66;5048391;28;20052;-66
2022/07/16 09:48:26;;;;;;;1.70;1.33;;;;;;;33.77;22.17;100935.28;5049041;28;20063;-66
2022/07/16 09:50:55;;;;;;;3.17;1.10;;;;;;;33.76;21.92;100950.97;5043973;28;20045;-66
2022/07/16 09:53:25;;;;;;;1.90;1.10;;;;;;;33.20;22.30;100949.50;5038817;28;20057;-65
2022/07/16 09:56:01;;;;;;;1.95;0.90;;;;;;;32.51;22.70;100949.84;5036385;28;20045;-65
2022/07/16 09:58:29;;;;;;;3.03;1.10;;;;;;;31.78;23.20;100958.75;5050988;28;20053;-65
2022/07/16 10:00:58;;;;;;;3.00;1.50;;;;;;;31.74;23.94;100950.19;5038027;28;20405;-66
2022/07/16 10:03:26;;;;;;;1.88;1.48;;;;;;;33.82;21.41;100948.31;5049925;28;20071;-65
2022/07/16 10:05:54;;;;;;;2.47;1.23;;;;;;;33.75;21.04;100950.19;5049825;28;20072;-65
2022/07/16 10:08:23;;;;;;;2.17;1.13;;;;;;;33.96;21.35;100953.63;5040982;28;20115;-65
2022/07/16 10:10:52;;;;;;;1.80;0.98;;;;;;;33.27;21.63;100955.03;5036653;28;20045;-66
2022/07/16 10:13:25;;;;;;;2.50;1.38;;;;;;;32.28;23.15;100960.34;5044446;28;20053;-62
2022/07/16 10:15:53;;;;;;;2.63;1.40;;;;;;;33.55;22.14;100950.38;5037669;28;20049;-66
2022/07/16 10:18:35;;;;;;;2.22;1.60;;;;;;;35.37;19.95;100962.47;5041101;28;20060;-65
2022/07/16 10:21:05;;;;;;;1.77;1.40;;;;;;;37.20;18.79;100952.84;5048794;28;20045;-64
2022/07/16 10:23:35;;;;;;;1.92;1.50;;;;;;;38.20;17.63;100950.75;5048767;28;20052;-64
2022/07/16 10:26:06;;;;;;;1.80;1.00;;;;;;;38.98;16.67;100953.63;5049429;28;20064;-65
2022/07/16 10:28:41;;;;;;;2.03;1.10;;;;;;;38.35;16.81;100957.41;5042427;28;20069;-64
2022/07/16 10:31:34;;;;;;;1.70;1.08;;;;;;;37.45;17.43;100961.13;5047027;28;20053;-64
2022/07/16 10:34:37;;;;;;;3.03;1.73;;;;;;;36.47;18.32;100964.03;5040736;28;20374;-64
2022/07/16 10:37:07;;;;;;;2.22;1.42;;;;;;;37.56;17.60;100961.41;5008161;28;20053;-64
2022/07/16 10:40:06;;;;;;;3.03;1.20;;;;;;;37.43;17.57;100962.94;5032392;28;20049;-65
2022/07/16 10:42:34;;;;;;;2.17;1.65;;;;;;;37.66;17.34;100967.22;5032222;28;20057;-64
2022/07/16 10:45:01;;;;;;;2.45;1.85;;;;;;;39.07;15.82;100967.28;5042705;28;20059;-64
2022/07/16 10:47:47;;;;;;;2.22;1.00;;;;;;;38.74;16.27;100965.31;5049957;28;20104;-65
2022/07/16 10:50:17;;;;;;;2.50;1.40;;;;;;;39.94;15.88;100970.56;5051909;28;20500;-65
2022/07/16 10:52:47;;;;;;;2.13;1.08;;;;;;;38.89;16.19;100974.06;5051728;28;20056;-65
2022/07/16 10:55:31;;;;;;;3.05;1.13;;;;;;;37.10;17.10;100992.72;5051566;28;20049;-64
2022/07/16 10:57:59;;;;;;;2.35;1.10;;;;;;;35.98;18.24;100982.34;5052034;28;20052;-65
2022/07/16 11:00:27;;;;;;;3.00;1.10;;;;;;;37.26;17.90;100986.56;5052097;28;20056;-64
2022/07/16 11:03:00;;;;;;;2.83;1.45;;;;;;;37.02;17.90;100991.41;5047122;28;20056;-65
2022/07/16 11:05:32;;;;;;;2.70;1.50;;;;;;;38.45;16.80;100977.69;5051175;28;20048;-64
2022/07/16 11:08:11;;;;;;;2.15;1.67;;;;;;;39.57;15.72;100988.53;5051817;28;20060;-65
2022/07/16 11:10:41;;;;;;;2.40;1.45;;;;;;;40.35;14.97;100976.44;5052100;28;20053;-64
2022/07/16 11:13:13;;;;;;;1.95;1.50;;;;;;;41.25;13.81;100972.91;5051451;28;20136;-64
2022/07/16 11:15:43;;;;;;;2.33;1.20;;;;;;;40.97;13.55;100994.69;5051606;28;20431;-64
2022/07/16 11:18:16;;;;;;;2.67;1.20;;;;;;;40.46;14.74;100983.72;5048299;28;20048;-64
2022/07/16 11:20:46;;;;;;;2.33;1.50;;;;;;;39.50;15.09;100999.81;5029348;28;20049;-64
2022/07/16 11:23:14;;;;;;;3.33;1.42;;;;;;;39.69;15.03;100995.38;5031390;28;20057;-64
2022/07/16 11:26:01;;;;;;;3.10;1.50;;;;;;;40.58;14.32;101000.06;5023628;28;20119;-64
2022/07/16 11:28:28;;;;;;;3.38;1.55;;;;;;;39.72;14.07;100997.25;5040821;28;20064;-64
2022/07/16 11:31:08;;;;;;;2.22;1.52;;;;;;;39.05;15.33;100996.91;5051911;28;20055;-64
2022/07/16 11:33:36;;;;;;;3.33;1.55;;;;;;;38.43;16.11;101006.47;5051763;28;20068;-64
2022/07/16 11:36:08;;;;;;;;;;;;;;;37.40;16.44;101017.03;5041567;28;20049;-64
2022/07/16 11:38:35;;;;;;;2.20;1.40;;;;;;;37.98;16.32;101003.38;5051533;28;19920;-64